Terminal Aerodrome Forecast
Issued by NWS

Home | Current Version | Previous Version | Text Only | Print | Product List | Glossary On
Versions: 1 2 3 4 5 6 7 8 9 10 11 12 13 14 15 16
000
FTUS43 KPAH 251511 AAA
TAFCGI
TAF AMD
KCGI 251511Z 2515/2612 VRB04KT P6SM SCT100 BKN250
      TEMPO 2515/2517 5SM HZ
     FM260000 02004KT P6SM OVC100=

USA.gov is the U.S. government's official web portal to all federal, state and local government web resources and services.